Cromona, Kentucky
Current Conditions -  °F | °C
As of 11:15 AM on Thursday 29 Jan 2015 (Local Time) from KLNP Reporting Station
Light Rain Light Rain  
Wind Chill: 28°   Ceiling: 6000
Heat Index: 37°   Visibility: 10mi
Dew Point: 27°   Wind: 17mph
Humidity: 65%   Direction: 210°SSW
Pressure: 30.09"   Gusts: 22mph
Location:  37.19°N, 82.7°W
Report Text: KLNP 291615Z AUTO 21015G19KT 10SM -RA SCT036 OVC060 03/M03 A3009 RMK AO2 P0001
Loading
Personal Weather Stations






























Interactive Weather Map New forecast layout! Learn more

10-Day Weather Forecast

Advertisements
Track Severe Weather on mobile